Time;durP1;ratioP1;P1;durP2;ratioP2;P2;SDS_P1;SDS_P2;PMS_P1;PMS_P2;Temp;Humidity;BMP_temperature;BMP_pressure;BME280_temperature;BME280_humidity;BME280_pressure;Samples;Min_cycle;Max_cycle;Signal;HPM_P1;HPM_P2
2021/06/17 00:02:17;;;;;;;;;;;;;;;20.51;58.26;100355.84;1711877;82;20987;-89
2021/06/17 00:04:45;;;;;;;1.65;1.55;;;;;;;20.51;57.81;100361.77;1699703;82;20145;-88
2021/06/17 00:07:11;;;;;;;;;;;;;;;20.42;57.75;100366.84;1709651;82;21021;-88
2021/06/17 00:09:38;;;;;;;4.40;1.60;;;;;;;20.40;57.85;100372.50;1707609;82;20183;-89
2021/06/17 00:12:06;;;;;;;2.05;1.37;;;;;;;20.29;57.91;100381.56;1707107;83;21552;-88
2021/06/17 00:14:34;;;;;;;1.52;1.25;;;;;;;20.23;58.03;100382.58;1670660;84;21073;-88
2021/06/17 00:17:03;;;;;;;2.05;1.85;;;;;;;20.12;58.45;100382.16;1651417;85;21027;-86
2021/06/17 00:19:31;;;;;;;3.62;2.02;;;;;;;19.98;58.51;100371.67;1654135;85;21227;-86
2021/06/17 00:21:57;;;;;;;1.60;1.50;;;;;;;19.93;58.73;100370.28;1653628;85;21022;-88
2021/06/17 00:24:25;;;;;;;2.65;1.50;;;;;;;19.95;58.89;100374.91;1690531;83;21243;-88
2021/06/17 00:26:52;;;;;;;1.40;1.30;;;;;;;19.93;58.81;100370.79;1699955;83;20978;-89
2021/06/17 00:29:19;;;;;;;1.85;1.70;;;;;;;19.87;58.95;100368.55;1705663;83;21044;-87
2021/06/17 00:31:47;;;;;;;5.10;1.75;;;;;;;19.85;59.36;100366.63;1701296;83;21050;-86
2021/06/17 00:34:13;;;;;;;5.15;2.10;;;;;;;19.84;59.33;100365.81;1705196;83;21554;-86
2021/06/17 00:36:41;;;;;;;1.42;1.32;;;;;;;19.85;59.56;100358.52;1716809;83;21048;-87
2021/06/17 00:39:10;;;;;;;1.27;1.27;;;;;;;19.88;59.90;100354.52;1699766;82;21006;-86
2021/06/17 00:41:39;;;;;;;1.72;1.62;;;;;;;19.91;59.97;100355.34;1697290;83;21394;-87
2021/06/17 00:44:07;;;;;;;1.37;1.27;;;;;;;19.96;59.63;100358.13;1703000;83;21487;-86
2021/06/17 00:46:35;;;;;;;5.35;2.00;;;;;;;19.99;59.11;100362.51;1671720;84;21015;-86
2021/06/17 00:49:05;;;;;;;1.32;1.07;;;;;;;19.93;59.05;100371.63;1677498;84;21056;-86
2021/06/17 00:51:32;;;;;;;3.00;1.82;;;;;;;19.88;59.32;100377.50;1675732;84;21040;-86
2021/06/17 00:53:59;;;;;;;2.02;1.42;;;;;;;19.76;59.56;100385.70;1677412;84;21053;-87
2021/06/17 00:56:27;;;;;;;1.95;1.82;;;;;;;19.68;59.81;100380.69;1649658;84;21571;-86
2021/06/17 00:58:53;;;;;;;3.70;1.80;;;;;;;19.64;60.19;100382.52;1625041;86;21132;-86
2021/06/17 01:01:20;;;;;;;2.55;1.30;;;;;;;19.63;60.20;100379.55;1633340;85;21133;-87
2021/06/17 01:03:47;;;;;;;1.40;1.30;;;;;;;19.63;60.42;100384.15;1658490;85;20995;-86
2021/06/17 01:06:13;;;;;;;1.95;1.42;;;;;;;19.72;60.32;100387.23;1667560;85;21102;-89
2021/06/17 01:08:49;;;;;;;;;;;;;;;19.79;59.77;100387.91;1661498;85;20992;-86
2021/06/17 01:11:23;;;;;;;1.60;1.45;;;;;;;19.74;60.09;100381.08;1664874;85;20521;-87
2021/06/17 01:14:24;;;;;;;2.00;1.90;;;;;;;19.70;60.14;100389.37;1649792;85;21714;-86
2021/06/17 01:17:05;;;;;;;2.50;1.98;;;;;;;19.68;59.87;100386.91;1665782;85;21096;-86
2021/06/17 01:19:49;;;;;;;1.57;1.45;;;;;;;19.62;60.14;100386.02;1660545;85;21066;-86
2021/06/17 01:22:35;;;;;;;4.05;1.87;;;;;;;19.58;60.30;100379.47;1661165;85;21569;-86
2021/06/17 01:25:17;;;;;;;5.53;1.60;;;;;;;19.50;60.49;100374.48;1650355;85;21160;-86
2021/06/17 01:28:11;;;;;;;2.90;1.10;;;;;;;19.43;60.51;100380.58;1618630;87;21073;-85
2021/06/17 01:31:00;;;;;;;3.22;1.65;;;;;;;19.42;60.66;100380.28;1668627;85;21020;-85
2021/06/17 01:33:31;;;;;;;3.33;1.37;;;;;;;19.39;60.81;100381.60;1665325;85;21534;-84
2021/06/17 01:36:02;;;;;;;3.95;1.98;;;;;;;19.34;60.95;100386.92;1663034;85;21079;-85
2021/06/17 01:38:32;;;;;;;2.80;2.27;;;;;;;19.26;60.98;100394.91;1659142;85;21090;-86
2021/06/17 01:41:01;;;;;;;1.82;1.70;;;;;;;19.25;61.38;100395.17;1654160;85;21122;-86
2021/06/17 01:43:29;;;;;;;4.30;1.60;;;;;;;19.30;61.25;100399.83;1657563;85;21074;-87
2021/06/17 01:45:58;;;;;;;4.03;1.90;;;;;;;19.30;61.29;100403.88;1661153;85;21099;-87
2021/06/17 01:48:26;;;;;;;3.55;1.77;;;;;;;19.33;61.03;100404.75;1660726;85;21069;-85
2021/06/17 01:50:54;;;;;;;2.42;1.30;;;;;;;19.34;60.90;100398.27;1660367;85;21651;-86
2021/06/17 01:53:24;;;;;;;3.58;2.20;;;;;;;19.32;61.04;100405.80;1618214;87;21546;-86
2021/06/17 01:55:58;;;;;;;2.22;2.12;;;;;;;19.28;61.37;100408.17;1661816;85;21539;-86
2021/06/17 01:58:27;;;;;;;2.22;2.00;;;;;;;19.32;61.08;100408.51;1667525;85;21531;-86
2021/06/17 02:00:55;;;;;;;2.12;2.08;;;;;;;19.35;60.98;100420.19;1666691;85;21038;-86
2021/06/17 02:03:24;;;;;;;3.45;2.10;;;;;;;19.36;61.07;100417.22;1666156;85;21018;-85
2021/06/17 02:05:51;;;;;;;2.95;2.20;;;;;;;19.40;61.01;100426.50;1663353;86;21021;-86
2021/06/17 02:08:19;;;;;;;2.47;2.27;;;;;;;19.43;60.95;100430.59;1668059;85;21034;-86
2021/06/17 02:10:47;;;;;;;4.35;3.27;;;;;;;19.48;60.64;100434.73;1667872;85;21124;-86
2021/06/17 02:13:16;;;;;;;3.65;3.33;;;;;;;19.46;60.76;100443.63;1659577;84;20976;-87
2021/06/17 02:15:46;;;;;;;3.33;2.45;;;;;;;19.37;60.97;100452.66;1674371;85;21039;-88
2021/06/17 02:18:17;;;;;;;3.33;3.08;;;;;;;19.34;61.08;100454.48;1673470;84;21039;-87
2021/06/17 02:20:43;;;;;;;3.10;2.80;;;;;;;19.35;61.26;100458.84;1655158;85;21012;-87
2021/06/17 02:23:14;;;;;;;3.33;2.52;;;;;;;19.37;61.19;100451.30;1656910;84;21038;-88
2021/06/17 02:25:43;;;;;;;5.78;2.72;;;;;;;19.39;61.15;100449.17;1640162;86;20997;-86
2021/06/17 02:28:20;;;;;;;3.55;2.37;;;;;;;19.36;61.27;100444.78;1645292;86;21051;-87
2021/06/17 02:30:48;;;;;;;2.27;2.00;;;;;;;19.35;61.57;100439.92;1645241;86;21107;-86
2021/06/17 02:33:18;;;;;;;2.45;2.25;;;;;;;19.38;61.54;100439.44;1646204;85;21008;-87
2021/06/17 02:35:49;;;;;;;2.20;1.98;;;;;;;19.41;61.28;100443.53;1644385;86;20998;-87
2021/06/17 02:38:20;;;;;;;3.90;2.00;;;;;;;19.48;61.20;100447.41;1642364;86;21029;-87
2021/06/17 02:40:48;;;;;;;2.75;1.82;;;;;;;19.62;61.07;100441.44;1644033;86;21124;-86
2021/06/17 02:43:19;;;;;;;4.30;2.62;;;;;;;19.93;60.07;100441.13;1645432;86;21018;-86
2021/06/17 02:45:48;;;;;;;4.35;2.22;;;;;;;20.17;59.37;100439.88;1643434;86;21168;-87
2021/06/17 02:48:15;;;;;;;1.70;1.60;;;;;;;20.35;59.02;100439.30;1645704;86;21052;-86
2021/06/17 02:50:44;;;;;;;3.47;2.10;;;;;;;20.66;57.96;100445.92;1644818;86;21576;-87
2021/06/17 02:53:11;;;;;;;1.40;1.27;;;;;;;20.92;56.97;100444.33;1633804;86;21043;-87
2021/06/17 02:55:40;;;;;;;6.58;2.35;;;;;;;21.09;56.80;100438.81;1643122;86;21021;-87
2021/06/17 02:59:01;;;;;;;1.82;1.70;;;;;;;21.31;56.42;100437.40;1643590;86;21660;-86
2021/06/17 03:01:45;;;;;;;2.65;1.55;;;;;;;21.64;55.90;100441.49;1646282;86;21049;-85
2021/06/17 03:04:48;;;;;;;1.60;1.37;;;;;;;22.19;54.34;100442.96;1625420;86;21057;-88
2021/06/17 03:07:23;;;;;;;2.47;1.85;;;;;;;22.52;53.31;100438.25;1647440;86;22206;-87
2021/06/17 03:10:01;;;;;;;2.33;1.67;;;;;;;22.79;52.69;100439.42;1644718;86;21053;-88
2021/06/17 03:12:28;;;;;;;2.02;1.67;;;;;;;23.02;52.05;100447.66;1667505;84;21038;-88
2021/06/17 03:14:58;;;;;;;6.58;2.05;;;;;;;23.26;51.70;100460.76;1645275;87;21038;-89
2021/06/17 03:17:26;;;;;;;1.62;1.52;;;;;;;23.60;50.92;100465.16;1692098;84;22188;-88
2021/06/17 03:19:56;;;;;;;2.20;1.62;;;;;;;23.96;49.95;100462.95;1695102;84;21528;-88
2021/06/17 03:22:26;;;;;;;4.60;1.60;;;;;;;24.32;48.93;100469.16;1686755;83;20983;-88
2021/06/17 03:24:57;;;;;;;1.95;1.42;;;;;;;24.59;48.15;100464.72;1666283;85;21491;-88
2021/06/17 03:27:26;;;;;;;1.37;1.27;;;;;;;24.89;47.82;100465.68;1658663;85;21031;-88
2021/06/17 03:29:53;;;;;;;2.65;1.07;;;;;;;25.13;46.79;100464.45;1657769;85;21033;-89
2021/06/17 03:32:24;;;;;;;3.33;1.50;;;;;;;25.25;46.43;100466.85;1664840;85;21076;-88
2021/06/17 03:34:52;;;;;;;2.42;1.45;;;;;;;25.18;46.62;100470.41;1685553;84;21046;-87
2021/06/17 03:37:21;;;;;;;1.80;1.65;;;;;;;25.16;46.99;100472.05;1645419;86;21077;-87
2021/06/17 03:39:49;;;;;;;3.25;1.55;;;;;;;25.12;46.82;100464.17;1665026;83;21068;-86
2021/06/17 03:42:17;;;;;;;2.37;1.12;;;;;;;24.94;47.22;100473.00;1692266;83;21476;-87
2021/06/17 03:44:43;;;;;;;1.10;1.02;;;;;;;24.97;47.50;100469.17;1687344;83;21137;-87
2021/06/17 03:47:11;;;;;;;1.35;0.95;;;;;;;25.08;47.46;100471.30;1620489;87;20996;-86
2021/06/17 03:49:41;;;;;;;1.42;1.30;;;;;;;25.39;47.27;100467.02;1654997;85;21096;-87
2021/06/17 03:52:08;;;;;;;5.45;0.82;;;;;;;25.74;46.46;100472.73;1658271;85;21623;-95
2021/06/17 03:54:36;;;;;;;3.77;1.22;;;;;;;26.03;45.43;100478.77;1658069;85;21058;-89
2021/06/17 03:57:05;;;;;;;3.05;1.62;;;;;;;26.21;45.13;100482.70;1658346;85;21061;-89
2021/06/17 03:59:42;;;;;;;3.33;1.75;;;;;;;26.47;44.63;100490.06;1660150;85;21092;-89
2021/06/17 04:02:10;;;;;;;1.98;1.50;;;;;;;26.81;44.29;100494.60;1659360;85;21099;-91
2021/06/17 04:04:38;;;;;;;3.12;1.17;;;;;;;27.24;43.06;100500.03;1663837;85;21018;-90
2021/06/17 04:07:09;;;;;;;3.30;0.82;;;;;;;27.16;43.19;100504.78;1605061;88;21098;-89
2021/06/17 04:09:40;;;;;;;4.92;0.88;;;;;;;27.13;43.24;100497.98;1606551;87;21104;-90
2021/06/17 04:12:11;;;;;;;3.37;1.30;;;;;;;27.23;42.91;100494.84;1633448;86;21060;-90
2021/06/17 04:14:42;;;;;;;0.72;0.62;;;;;;;27.18;43.08;100498.45;1641012;87;21661;-90
2021/06/17 04:17:19;;;;;;;6.67;1.12;;;;;;;27.26;42.98;100495.10;1645468;86;21047;-89
2021/06/17 04:19:47;;;;;;;1.00;0.80;;;;;;;27.28;43.02;100490.70;1640531;85;21036;-90
2021/06/17 04:22:16;;;;;;;1.47;1.15;;;;;;;27.12;43.35;100490.88;1646253;86;21080;-90
2021/06/17 04:24:47;;;;;;;1.05;0.93;;;;;;;26.91;43.72;100495.82;1664500;85;21203;-89
2021/06/17 04:27:15;;;;;;;2.20;0.90;;;;;;;26.88;44.09;100493.70;1644262;86;21086;-90
2021/06/17 04:29:42;;;;;;;2.50;1.35;;;;;;;26.98;44.06;100490.00;1659404;86;21571;-90
2021/06/17 04:32:13;;;;;;;2.98;1.30;;;;;;;27.04;44.04;100491.55;1647401;86;22089;-90
2021/06/17 04:34:42;;;;;;;2.35;1.30;;;;;;;27.08;44.11;100492.58;1643835;85;21091;-90
2021/06/17 04:37:15;;;;;;;2.47;1.40;;;;;;;27.29;43.67;100493.69;1636942;86;21583;-90
2021/06/17 04:39:44;;;;;;;1.95;1.32;;;;;;;27.37;43.64;100492.47;1635546;86;21058;-90
2021/06/17 04:42:13;;;;;;;3.95;1.07;;;;;;;27.15;43.54;100467.60;1648133;86;21556;-91
2021/06/17 04:44:44;;;;;;;1.77;1.15;;;;;;;26.99;44.21;100492.98;1646130;86;21136;-91
2021/06/17 04:47:14;;;;;;;2.05;0.88;;;;;;;26.73;45.13;100497.97;1637692;86;21461;-94
2021/06/17 04:49:40;;;;;;;2.17;0.85;;;;;;;26.63;45.36;100498.91;1639350;87;21154;-87
2021/06/17 04:52:12;;;;;;;2.70;1.40;;;;;;;26.64;45.43;100501.12;1640426;84;20986;-94
2021/06/17 04:54:39;;;;;;;5.30;1.12;;;;;;;26.54;45.57;100500.10;1636474;86;21612;-94
2021/06/17 04:57:05;;;;;;;4.33;1.25;;;;;;;26.32;46.25;100498.44;1658558;85;21040;-95
2021/06/17 04:59:31;;;;;;;2.30;0.70;;;;;;;26.28;46.31;100501.50;1667047;85;21088;-96
2021/06/17 05:01:58;;;;;;;3.90;1.50;;;;;;;26.59;45.91;100499.21;1657204;86;21106;-94
2021/06/17 05:04:24;;;;;;;4.15;1.60;;;;;;;26.80;45.29;100509.37;1663360;86;21050;-91
2021/06/17 05:07:21;;;;;;;3.47;1.47;;;;;;;26.52;45.64;100480.45;1635304;86;21116;-94
2021/06/17 05:12:13;;;;;;;3.05;0.78;;;;;;;26.61;46.04;100514.80;1654026;86;21141;-92
2021/06/17 05:14:39;;;;;;;2.15;1.27;;;;;;;26.70;45.90;100520.44;1660484;85;21510;-92
2021/06/17 05:17:05;;;;;;;4.37;1.00;;;;;;;26.67;45.75;100523.75;1635422;86;20993;-93
2021/06/17 05:19:31;;;;;;;5.22;1.12;;;;;;;26.64;45.83;100532.55;1652428;86;21370;-89
2021/06/17 05:21:58;;;;;;;0.98;0.98;;;;;;;26.49;46.36;100535.69;1693838;83;21073;-90
2021/06/17 05:24:24;;;;;;;3.02;1.20;;;;;;;26.39;46.59;100539.88;1694984;83;21149;-90
2021/06/17 05:26:50;;;;;;;8.08;1.00;;;;;;;26.43;46.45;100543.68;1696596;83;21421;-90
2021/06/17 05:29:20;;;;;;;2.67;0.90;;;;;;;26.36;46.30;100548.11;1696742;83;21056;-89
2021/06/17 05:31:48;;;;;;;1.77;1.10;;;;;;;26.29;46.76;100548.19;1696518;83;21114;-89
2021/06/17 05:34:14;;;;;;;4.05;1.20;;;;;;;26.19;46.76;100543.64;1693914;83;21002;-89
2021/06/17 05:36:40;;;;;;;2.45;1.40;;;;;;;26.05;47.22;100553.07;1698306;83;21069;-89
2021/06/17 05:39:06;;;;;;;5.58;1.20;;;;;;;25.90;47.54;100546.31;1693255;83;20990;-90
2021/06/17 05:41:32;;;;;;;2.58;0.65;;;;;;;25.87;48.71;100545.55;1697349;83;20978;-90
2021/06/17 05:43:58;;;;;;;1.87;1.45;;;;;;;26.11;47.48;100548.38;1694813;83;21014;-91
2021/06/17 05:46:25;;;;;;;1.70;0.98;;;;;;;26.13;47.67;100544.80;1695531;83;21014;-91
2021/06/17 05:48:51;;;;;;;1.47;1.00;;;;;;;26.12;47.49;100549.43;1699067;83;21658;-90
2021/06/17 05:51:17;;;;;;;1.77;1.05;;;;;;;26.26;47.26;100547.39;1700615;83;21050;-89
2021/06/17 05:53:45;;;;;;;3.00;0.80;;;;;;;26.37;47.00;100547.55;1699778;83;21084;-88
2021/06/17 05:56:11;;;;;;;2.62;1.32;;;;;;;26.43;46.68;100558.71;1693502;83;21036;-85
2021/06/17 05:58:39;;;;;;;3.40;0.80;;;;;;;26.51;46.64;100554.53;1696429;83;21530;-88
2021/06/17 06:01:07;;;;;;;4.35;1.32;;;;;;;26.64;46.79;100550.33;1690989;83;22062;-88
2021/06/17 06:03:34;;;;;;;1.75;1.02;;;;;;;26.70;46.40;100556.80;1694366;83;21056;-88
2021/06/17 06:06:00;;;;;;;1.87;0.88;;;;;;;26.63;46.67;100558.25;1689671;83;20998;-89
2021/06/17 06:08:28;;;;;;;2.17;1.15;;;;;;;26.58;46.88;100558.55;1693787;83;21105;-89
2021/06/17 06:10:55;;;;;;;3.58;1.10;;;;;;;26.52;46.85;100562.45;1696950;83;21084;-88
2021/06/17 06:13:25;;;;;;;0.93;0.93;;;;;;;26.59;46.94;100561.55;1697253;83;21089;-91
2021/06/17 06:15:51;;;;;;;4.58;1.20;;;;;;;26.75;47.01;100565.50;1696740;83;21058;-88
2021/06/17 06:18:18;;;;;;;1.17;0.80;;;;;;;26.86;46.28;100561.55;1676966;84;21025;-87
2021/06/17 06:20:47;;;;;;;3.37;0.68;;;;;;;26.78;46.42;100563.53;1676118;85;21264;-89
2021/06/17 06:23:13;;;;;;;2.35;1.40;;;;;;;26.66;46.70;100564.52;1681951;83;21037;-88
2021/06/17 06:25:50;;;;;;;3.83;1.00;;;;;;;26.70;46.66;100569.66;1698193;83;21160;-88
2021/06/17 06:28:09;;;;;;;1.55;1.12;;;;;;;26.67;46.64;100573.77;1689548;83;21090;-89
2021/06/17 06:30:35;;;;;;;3.22;1.00;;;;;;;26.73;46.70;100571.79;1635988;86;21099;-91
2021/06/17 06:33:01;;;;;;;2.77;1.10;;;;;;;26.80;46.78;100566.79;1656254;85;21056;-88
2021/06/17 06:35:27;;;;;;;3.67;1.10;;;;;;;26.95;46.38;100565.23;1660403;85;21034;-87
2021/06/17 06:37:54;;;;;;;3.40;1.17;;;;;;;27.00;45.92;100561.63;1649532;86;21137;-89
2021/06/17 06:40:27;;;;;;;4.53;1.00;;;;;;;26.90;46.36;100570.78;1659119;85;21092;-90
2021/06/17 06:42:56;;;;;;;5.00;1.20;;;;;;;26.82;46.65;100565.94;1654023;86;21046;-90
2021/06/17 06:45:25;;;;;;;4.65;1.72;;;;;;;26.72;46.83;100564.71;1651739;82;21552;-88
2021/06/17 06:47:53;;;;;;;4.80;2.25;;;;;;;26.67;47.14;100562.83;1650942;86;21094;-88
2021/06/17 06:50:20;;;;;;;4.50;1.62;;;;;;;26.76;47.31;100566.55;1639682;86;21027;-91
2021/06/17 06:52:46;;;;;;;2.90;1.65;;;;;;;26.87;47.02;100572.73;1654652;86;21032;-92
2021/06/17 06:55:18;;;;;;;1.92;1.70;;;;;;;26.94;47.09;100562.25;1652156;82;21102;-94
2021/06/17 06:57:49;;;;;;;2.58;1.45;;;;;;;27.04;46.76;100567.34;1654435;82;21088;-87
2021/06/17 07:00:18;;;;;;;2.75;1.20;;;;;;;26.98;46.75;100557.02;1655140;85;21046;-96
2021/06/17 07:02:45;;;;;;;1.17;1.10;;;;;;;26.99;46.69;100568.20;1654622;86;21111;-96
2021/06/17 07:05:14;;;;;;;1.95;1.47;;;;;;;27.03;46.93;100573.38;1666566;80;20978;-94
2021/06/17 07:07:44;;;;;;;1.30;1.20;;;;;;;26.99;46.54;100563.56;1650237;82;21116;-95
2021/06/17 07:10:15;;;;;;;1.55;1.02;;;;;;;27.00;46.80;100565.17;1648272;87;21385;-90
2021/06/17 07:12:43;;;;;;;1.98;1.30;;;;;;;27.02;46.64;100568.19;1651486;86;21073;-87
2021/06/17 07:15:11;;;;;;;5.53;1.52;;;;;;;26.97;47.15;100577.25;1651996;86;21015;-87
2021/06/17 07:17:37;;;;;;;3.85;1.17;;;;;;;26.94;46.92;100574.56;1653644;85;21042;-87
2021/06/17 07:20:06;;;;;;;2.72;1.45;;;;;;;27.06;46.76;100571.39;1647368;86;21074;-86
2021/06/17 07:22:32;;;;;;;1.98;1.20;;;;;;;27.25;46.32;100575.55;1646860;86;20988;-85
2021/06/17 07:24:58;;;;;;;3.22;1.52;;;;;;;27.31;45.76;100575.77;1628193;87;21015;-86
2021/06/17 07:27:24;;;;;;;2.40;1.92;;;;;;;27.18;46.22;100581.38;1654403;85;21069;-87
2021/06/17 07:29:52;;;;;;;1.12;1.10;;;;;;;27.17;46.40;100584.39;1651031;86;21631;-86
2021/06/17 07:32:19;;;;;;;4.85;1.25;;;;;;;27.26;46.67;100588.14;1648763;86;20956;-87
2021/06/17 07:34:46;;;;;;;7.15;1.22;;;;;;;27.38;46.28;100585.77;1658866;85;21823;-86
2021/06/17 07:37:14;;;;;;;4.28;1.42;;;;;;;27.44;46.05;100587.88;1660089;85;21677;-87
2021/06/17 07:39:40;;;;;;;4.58;1.30;;;;;;;27.41;46.11;100589.02;1668165;85;20995;-87
2021/06/17 07:42:07;;;;;;;1.42;1.10;;;;;;;27.36;46.04;100582.52;1667127;85;21017;-87
2021/06/17 07:44:33;;;;;;;2.75;1.40;;;;;;;27.35;46.08;100592.38;1666428;85;21086;-89
2021/06/17 07:46:59;;;;;;;1.80;1.30;;;;;;;27.32;46.21;100589.69;1666838;85;21591;-87
2021/06/17 07:49:25;;;;;;;1.90;1.22;;;;;;;27.31;46.82;100589.98;1636063;86;21093;-86
2021/06/17 07:51:51;;;;;;;6.95;2.00;;;;;;;27.24;46.98;100587.59;1629388;86;21089;-87
2021/06/17 07:54:21;;;;;;;2.05;1.10;;;;;;;27.22;46.65;100576.66;1625343;87;21056;-86
2021/06/17 07:56:48;;;;;;;3.55;1.75;;;;;;;27.27;46.43;100591.68;1648002;86;21053;-87
2021/06/17 07:59:18;;;;;;;2.55;1.55;;;;;;;27.31;46.58;100587.24;1659313;86;21038;-87
2021/06/17 08:01:43;;;;;;;1.22;1.12;;;;;;;27.33;46.74;100590.50;1663202;86;21004;-87
2021/06/17 08:04:10;;;;;;;2.80;1.00;;;;;;;27.31;46.21;100594.92;1654686;86;21114;-87
2021/06/17 08:06:41;;;;;;;6.85;1.40;;;;;;;27.30;46.44;100593.84;1641065;86;21591;-87
2021/06/17 08:09:09;;;;;;;1.90;1.05;;;;;;;27.26;46.38;100603.19;1657153;86;21207;-86
2021/06/17 08:11:37;;;;;;;4.05;2.33;;;;;;;27.19;47.15;100589.83;1646842;86;21027;-86
2021/06/17 08:14:05;;;;;;;1.67;1.60;;;;;;;27.14;47.30;100598.66;1669546;85;21118;-87
2021/06/17 08:16:31;;;;;;;4.42;1.12;;;;;;;27.10;47.58;100593.52;1655973;86;21431;-87
2021/06/17 08:18:57;;;;;;;1.92;1.37;;;;;;;27.08;48.17;100590.26;1697937;83;21101;-87
2021/06/17 08:21:23;;;;;;;3.50;1.47;;;;;;;27.11;48.06;100600.63;1697135;83;21171;-87
2021/06/17 08:23:50;;;;;;;1.85;1.42;;;;;;;27.14;47.52;100604.13;1695090;83;20974;-87
2021/06/17 08:26:16;;;;;;;3.87;1.20;;;;;;;27.14;47.43;100609.06;1697129;84;21106;-87
2021/06/17 08:28:43;;;;;;;2.47;1.17;;;;;;;27.16;47.40;100600.01;1693728;83;20995;-86
2021/06/17 08:33:01;;;;;;;;;;;;;;;27.33;45.45;100603.65;1804023;78;22889;-87
2021/06/17 08:35:27;;;;;;;3.83;1.37;;;;;;;27.32;43.89;100606.67;1716059;82;20121;-87
2021/06/17 08:37:54;;;;;;;1.15;1.15;;;;;;;27.24;43.65;100613.59;1732278;82;21570;-87
2021/06/17 08:40:33;;;;;;;2.05;1.05;;;;;;;27.14;43.71;100605.49;1732474;82;21213;-87
2021/06/17 08:43:01;;;;;;;2.40;1.57;;;;;;;27.09;43.70;100604.21;1734361;82;21096;-87
2021/06/17 08:45:28;;;;;;;1.82;0.80;;;;;;;27.13;45.21;100584.73;1736888;81;21527;-88
2021/06/17 08:47:56;;;;;;;2.15;1.00;;;;;;;27.16;43.38;100641.58;1754606;81;21076;-87
2021/06/17 08:50:24;;;;;;;1.85;1.22;;;;;;;27.09;43.20;100616.52;1752070;81;21006;-87
2021/06/17 08:52:50;;;;;;;4.78;1.37;;;;;;;26.94;43.68;100630.63;1724363;81;20982;-85
2021/06/17 08:55:21;;;;;;;1.62;0.90;;;;;;;26.84;43.88;100626.63;1725379;81;21029;-87
2021/06/17 08:57:50;;;;;;;1.15;0.90;;;;;;;26.81;44.20;100649.10;1724143;81;21001;-87
2021/06/17 09:00:27;;;;;;;2.52;0.90;;;;;;;26.80;43.63;100652.92;1733073;81;21688;-88
2021/06/17 09:03:10;;;;;;;0.50;0.50;;;;;;;26.77;43.68;100659.00;1709083;81;20998;-87
2021/06/17 09:05:43;;;;;;;3.02;0.78;;;;;;;26.77;43.72;100623.45;1711313;81;21092;-84
2021/06/17 09:08:12;;;;;;;1.32;1.05;;;;;;;26.86;43.96;100616.77;1714534;81;21033;-87
2021/06/17 09:10:40;;;;;;;1.30;1.20;;;;;;;26.98;43.67;100600.22;1729039;81;21080;-85
2021/06/17 09:13:11;;;;;;;1.47;1.02;;;;;;;27.12;44.03;100607.71;1748189;80;21025;-87
2021/06/17 09:15:52;;;;;;;3.42;0.93;;;;;;;27.22;43.87;100628.12;1745818;80;21081;-88
2021/06/17 09:18:26;;;;;;;2.20;0.88;;;;;;;27.22;43.91;100645.91;1727619;82;21032;-87
2021/06/17 09:21:07;;;;;;;1.35;1.00;;;;;;;27.17;43.83;100637.19;1715952;83;21508;-87
2021/06/17 09:23:45;;;;;;;1.20;1.10;;;;;;;27.07;43.69;100620.08;1695744;81;21113;-88
2021/06/17 09:26:17;;;;;;;;;;;;;;;26.95;44.24;100607.63;1678920;84;21030;-85
2021/06/17 09:28:52;;;;;;;2.40;0.85;;;;;;;26.97;44.28;100617.75;1686223;83;20151;-86
2021/06/17 09:31:26;;;;;;;3.27;0.95;;;;;;;27.03;43.92;100620.41;1681469;84;21654;-87
2021/06/17 09:33:54;;;;;;;1.85;1.67;;;;;;;27.08;43.92;100610.22;1680367;84;21165;-87
2021/06/17 09:36:32;;;;;;;4.35;1.20;;;;;;;27.06;44.10;100611.62;1695037;84;21060;-85
2021/06/17 09:39:09;;;;;;;1.67;0.72;;;;;;;27.10;44.05;100601.72;1676891;84;21045;-86
2021/06/17 09:41:46;;;;;;;2.22;0.85;;;;;;;27.12;44.15;100634.51;1684667;84;21034;-86
2021/06/17 09:44:36;;;;;;;;;;;;;;;27.16;44.13;100634.21;1683799;84;21371;-87
2021/06/17 09:47:11;;;;;;;2.22;0.95;;;;;;;27.19;43.99;100619.92;1651446;85;20152;-88
2021/06/17 09:49:41;;;;;;;7.50;1.00;;;;;;;27.11;44.13;100621.95;1671954;84;21041;-86
2021/06/17 09:52:09;;;;;;;2.60;1.37;;;;;;;27.12;44.10;100618.09;1685045;84;21033;-88
2021/06/17 09:54:39;;;;;;;3.42;1.07;;;;;;;27.11;44.04;100623.32;1681544;84;21532;-86
2021/06/17 09:57:23;;;;;;;1.98;0.62;;;;;;;27.09;43.79;100621.99;1678081;84;21068;-86
2021/06/17 09:59:54;;;;;;;1.45;0.70;;;;;;;27.05;43.81;100631.87;1668462;85;21111;-88
2021/06/17 10:02:29;;;;;;;3.10;1.47;;;;;;;27.06;43.93;100619.83;1647303;85;21620;-87
2021/06/17 10:05:18;;;;;;;1.20;1.05;;;;;;;27.09;44.18;100625.53;1644358;85;21686;-87
2021/06/17 10:07:45;;;;;;;2.15;1.00;;;;;;;27.11;44.07;100594.59;1669973;84;21098;-87
2021/06/17 10:10:17;;;;;;;1.37;1.20;;;;;;;27.08;43.99;100618.42;1677467;84;21717;-87
2021/06/17 10:12:44;;;;;;;1.45;0.82;;;;;;;27.06;43.81;100615.73;1668136;84;21032;-85
2021/06/17 10:15:11;;;;;;;1.17;1.00;;;;;;;27.06;44.02;100608.89;1678727;84;21034;-87
2021/06/17 10:17:38;;;;;;;5.22;0.90;;;;;;;27.10;44.00;100626.34;1685211;84;21653;-87
2021/06/17 10:20:11;;;;;;;2.27;0.82;;;;;;;27.08;43.32;100601.20;1681627;84;21095;-86
2021/06/17 10:22:39;;;;;;;2.17;0.80;;;;;;;27.01;43.17;100609.75;1660497;84;21017;-87
2021/06/17 10:25:09;;;;;;;2.47;1.05;;;;;;;26.95;43.49;100604.89;1664129;84;21086;-87
2021/06/17 10:27:39;;;;;;;1.87;1.00;;;;;;;27.00;43.71;100595.27;1666638;84;21104;-87
2021/06/17 10:30:08;;;;;;;3.35;0.85;;;;;;;27.11;43.69;100591.05;1674683;84;21070;-87
2021/06/17 10:32:40;;;;;;;6.22;0.85;;;;;;;27.20;43.92;100587.92;1667042;84;21498;-86
2021/06/17 10:35:10;;;;;;;1.67;1.00;;;;;;;27.28;43.58;100600.97;1661020;84;21695;-86
2021/06/17 10:38:02;;;;;;;1.55;1.25;;;;;;;27.29;43.41;100610.80;1649694;84;21077;-87
2021/06/17 10:40:30;;;;;;;2.77;0.55;;;;;;;27.25;43.23;100608.39;1671227;84;21003;-87
2021/06/17 10:43:00;;;;;;;6.78;1.00;;;;;;;27.25;43.52;100598.81;1663459;84;21099;-86
2021/06/17 10:45:50;;;;;;;1.62;0.70;;;;;;;27.32;43.31;100595.73;1669111;84;21007;-86
2021/06/17 10:48:25;;;;;;;1.40;0.95;;;;;;;27.44;43.26;100628.13;1663241;84;21070;-86
2021/06/17 10:51:03;;;;;;;6.33;0.70;;;;;;;27.50;43.11;100595.46;1657808;85;21214;-87
2021/06/17 10:53:45;;;;;;;1.67;0.60;;;;;;;27.54;43.53;100588.31;1656247;86;21138;-88
2021/06/17 10:56:26;;;;;;;2.35;0.85;;;;;;;27.64;43.30;100586.77;1653890;84;21025;-88
2021/06/17 10:58:55;;;;;;;1.57;0.75;;;;;;;27.75;42.86;100582.77;1656869;84;21097;-85
2021/06/17 11:01:45;;;;;;;2.60;0.90;;;;;;;27.76;42.16;100584.41;1653619;84;21022;-87
2021/06/17 11:04:34;;;;;;;2.67;1.10;;;;;;;27.71;42.39;100602.84;1653975;84;21097;-86
2021/06/17 11:07:07;;;;;;;0.95;0.88;;;;;;;27.56;42.73;100593.73;1658241;84;21090;-86
2021/06/17 11:09:56;;;;;;;2.27;0.88;;;;;;;27.38;42.39;100584.40;1653811;84;21113;-85
2021/06/17 11:12:28;;;;;;;2.02;0.80;;;;;;;27.24;42.67;100578.02;1635615;85;21098;-86
2021/06/17 11:14:57;;;;;;;1.05;0.82;;;;;;;27.11;42.91;100582.28;1666496;85;21129;-87
2021/06/17 11:17:33;;;;;;;1.32;0.90;;;;;;;27.09;43.25;100585.06;1657256;85;21110;-86
2021/06/17 11:20:16;;;;;;;1.67;0.60;;;;;;;27.13;43.03;100580.06;1663630;84;21059;-87
2021/06/17 11:22:59;;;;;;;3.55;1.15;;;;;;;27.22;42.93;100554.23;1658195;84;21036;-88
2021/06/17 11:25:29;;;;;;;2.87;1.35;;;;;;;27.32;43.04;100558.22;1646946;85;21105;-86
2021/06/17 11:28:13;;;;;;;1.95;0.70;;;;;;;27.43;42.68;100563.56;1656913;85;21041;-86
2021/06/17 11:30:54;;;;;;;0.98;0.68;;;;;;;27.49;42.45;100555.53;1659091;85;21101;-86
2021/06/17 11:33:32;;;;;;;2.33;0.85;;;;;;;27.51;41.93;100542.36;1662352;85;21150;-84
2021/06/17 11:36:03;;;;;;;3.02;0.60;;;;;;;27.52;41.25;100543.43;1634686;86;21034;-86
2021/06/17 11:38:32;;;;;;;0.70;0.68;;;;;;;27.56;41.47;100545.02;1662503;84;21007;-85
2021/06/17 11:41:09;;;;;;;0.60;0.60;;;;;;;27.65;41.28;100545.14;1661129;84;21069;-85
2021/06/17 11:43:35;;;;;;;1.30;0.85;;;;;;;27.72;41.28;100534.06;1661565;85;21042;-86
2021/06/17 11:46:01;;;;;;;2.02;0.78;;;;;;;27.76;41.66;100541.97;1678143;84;21022;-85
2021/06/17 11:48:29;;;;;;;4.20;0.90;;;;;;;27.71;41.75;100554.36;1676023;85;21069;-87